sensor_id;sensor_type;location;lat;lon;timestamp;P1;durP1;ratioP1;P2;durP2;ratioP2
40731;SDS011;26420;52.256;9.096;2022-10-23T00:02:21;2.60;;;1.27;;
40731;SDS011;26420;52.256;9.096;2022-10-23T00:07:23;5.63;;;1.50;;
40731;SDS011;26420;52.256;9.096;2022-10-23T00:12:25;9.63;;;1.80;;
40731;SDS011;26420;52.256;9.096;2022-10-23T00:17:28;4.35;;;1.40;;
40731;SDS011;26420;52.256;9.096;2022-10-23T00:22:32;3.80;;;1.38;;
40731;SDS011;26420;52.256;9.096;2022-10-23T00:27:35;3.85;;;1.30;;
40731;SDS011;26420;52.256;9.096;2022-10-23T00:32:37;2.47;;;1.20;;
40731;SDS011;26420;52.256;9.096;2022-10-23T00:37:39;5.90;;;1.60;;
40731;SDS011;26420;52.256;9.096;2022-10-23T00:42:42;4.95;;;1.55;;
40731;SDS011;26420;52.256;9.096;2022-10-23T00:47:44;3.50;;;1.60;;
40731;SDS011;26420;52.256;9.096;2022-10-23T00:52:48;5.97;;;1.48;;
40731;SDS011;26420;52.256;9.096;2022-10-23T00:57:51;4.50;;;1.88;;
40731;SDS011;26420;52.256;9.096;2022-10-23T01:02:53;8.18;;;1.25;;
40731;SDS011;26420;52.256;9.096;2022-10-23T01:08:00;3.28;;;1.52;;
40731;SDS011;26420;52.256;9.096;2022-10-23T01:13:17;2.70;;;1.23;;
40731;SDS011;26420;52.256;9.096;2022-10-23T01:28:42;3.70;;;1.60;;
40731;SDS011;26420;52.256;9.096;2022-10-23T01:33:50;3.92;;;1.70;;
40731;SDS011;26420;52.256;9.096;2022-10-23T01:39:06;5.63;;;1.30;;
40731;SDS011;26420;52.256;9.096;2022-10-23T01:44:23;2.97;;;1.45;;
40731;SDS011;26420;52.256;9.096;2022-10-23T01:49:27;4.50;;;1.40;;
40731;SDS011;26420;52.256;9.096;2022-10-23T01:54:32;6.45;;;1.38;;
40731;SDS011;26420;52.256;9.096;2022-10-23T01:59:37;4.15;;;1.83;;
40731;SDS011;26420;52.256;9.096;2022-10-23T02:04:45;4.35;;;1.30;;
40731;SDS011;26420;52.256;9.096;2022-10-23T02:09:48;3.72;;;1.17;;
40731;SDS011;26420;52.256;9.096;2022-10-23T02:14:52;4.90;;;1.38;;
40731;SDS011;26420;52.256;9.096;2022-10-23T02:20:02;2.80;;;1.00;;
40731;SDS011;26420;52.256;9.096;2022-10-23T02:25:22;3.50;;;1.50;;
40731;SDS011;26420;52.256;9.096;2022-10-23T02:30:27;2.70;;;1.20;;
40731;SDS011;26420;52.256;9.096;2022-10-23T02:35:41;4.93;;;1.67;;
40731;SDS011;26420;52.256;9.096;2022-10-23T02:40:53;4.50;;;1.13;;
40731;SDS011;26420;52.256;9.096;2022-10-23T03:01:08;4.43;;;1.38;;
40731;SDS011;26420;52.256;9.096;2022-10-23T03:06:11;7.22;;;1.40;;
40731;SDS011;26420;52.256;9.096;2022-10-23T03:11:14;4.07;;;1.40;;
40731;SDS011;26420;52.256;9.096;2022-10-23T03:16:16;4.05;;;1.23;;
40731;SDS011;26420;52.256;9.096;2022-10-23T03:21:24;2.35;;;1.38;;
40731;SDS011;26420;52.256;9.096;2022-10-23T03:26:27;3.33;;;1.23;;
40731;SDS011;26420;52.256;9.096;2022-10-23T03:31:29;6.57;;;1.20;;
40731;SDS011;26420;52.256;9.096;2022-10-23T03:36:33;4.03;;;1.10;;
40731;SDS011;26420;52.256;9.096;2022-10-23T03:41:36;7.20;;;1.50;;
40731;SDS011;26420;52.256;9.096;2022-10-23T03:46:38;4.70;;;1.38;;
40731;SDS011;26420;52.256;9.096;2022-10-23T03:51:40;3.13;;;1.50;;
40731;SDS011;26420;52.256;9.096;2022-10-23T03:56:44;6.05;;;1.40;;
40731;SDS011;26420;52.256;9.096;2022-10-23T04:01:46;4.90;;;1.50;;
40731;SDS011;26420;52.256;9.096;2022-10-23T04:06:48;4.25;;;1.30;;
40731;SDS011;26420;52.256;9.096;2022-10-23T04:11:54;5.13;;;1.40;;
40731;SDS011;26420;52.256;9.096;2022-10-23T04:17:00;7.32;;;1.70;;
40731;SDS011;26420;52.256;9.096;2022-10-23T04:22:02;3.60;;;1.52;;
40731;SDS011;26420;52.256;9.096;2022-10-23T04:27:04;6.35;;;1.42;;
40731;SDS011;26420;52.256;9.096;2022-10-23T04:32:06;4.88;;;1.30;;
40731;SDS011;26420;52.256;9.096;2022-10-23T04:37:08;5.13;;;1.77;;
40731;SDS011;26420;52.256;9.096;2022-10-23T04:42:11;4.35;;;1.60;;
40731;SDS011;26420;52.256;9.096;2022-10-23T04:47:13;3.97;;;1.42;;
40731;SDS011;26420;52.256;9.096;2022-10-23T04:52:28;1.90;;;1.27;;
40731;SDS011;26420;52.256;9.096;2022-10-23T04:57:50;10.23;;;1.80;;
40731;SDS011;26420;52.256;9.096;2022-10-23T05:02:56;3.90;;;1.60;;
40731;SDS011;26420;52.256;9.096;2022-10-23T05:08:07;5.18;;;1.67;;
40731;SDS011;26420;52.256;9.096;2022-10-23T05:13:21;2.75;;;1.60;;
40731;SDS011;26420;52.256;9.096;2022-10-23T05:18:34;3.60;;;1.83;;
40731;SDS011;26420;52.256;9.096;2022-10-23T05:23:37;2.15;;;1.63;;
40731;SDS011;26420;52.256;9.096;2022-10-23T05:28:41;6.22;;;1.88;;
40731;SDS011;26420;52.256;9.096;2022-10-23T05:33:47;3.50;;;1.50;;
40731;SDS011;26420;52.256;9.096;2022-10-23T05:38:49;5.82;;;1.88;;
40731;SDS011;26420;52.256;9.096;2022-10-23T05:43:54;3.80;;;1.45;;
40731;SDS011;26420;52.256;9.096;2022-10-23T05:49:14;6.47;;;2.08;;
40731;SDS011;26420;52.256;9.096;2022-10-23T05:54:35;6.63;;;1.88;;
40731;SDS011;26420;52.256;9.096;2022-10-23T05:59:56;8.52;;;2.08;;
40731;SDS011;26420;52.256;9.096;2022-10-23T06:05:14;4.40;;;1.92;;
40731;SDS011;26420;52.256;9.096;2022-10-23T06:10:45;4.68;;;1.60;;
40731;SDS011;26420;52.256;9.096;2022-10-23T06:15:48;4.05;;;1.98;;
40731;SDS011;26420;52.256;9.096;2022-10-23T06:20:53;4.93;;;2.05;;
40731;SDS011;26420;52.256;9.096;2022-10-23T06:25:58;4.88;;;1.63;;
40731;SDS011;26420;52.256;9.096;2022-10-23T06:31:10;8.80;;;1.90;;
40731;SDS011;26420;52.256;9.096;2022-10-23T06:36:13;5.20;;;1.75;;
40731;SDS011;26420;52.256;9.096;2022-10-23T06:41:20;1.83;;;1.52;;
40731;SDS011;26420;52.256;9.096;2022-10-23T06:46:27;7.50;;;1.80;;
40731;SDS011;26420;52.256;9.096;2022-10-23T06:51:59;7.45;;;1.73;;
40731;SDS011;26420;52.256;9.096;2022-10-23T06:57:01;7.47;;;2.00;;
40731;SDS011;26420;52.256;9.096;2022-10-23T07:02:12;5.88;;;1.92;;
40731;SDS011;26420;52.256;9.096;2022-10-23T07:07:15;4.18;;;1.98;;
40731;SDS011;26420;52.256;9.096;2022-10-23T07:12:20;3.78;;;1.92;;
40731;SDS011;26420;52.256;9.096;2022-10-23T07:17:29;6.25;;;2.00;;
40731;SDS011;26420;52.256;9.096;2022-10-23T07:22:32;5.65;;;1.65;;
40731;SDS011;26420;52.256;9.096;2022-10-23T07:27:45;4.47;;;1.63;;
40731;SDS011;26420;52.256;9.096;2022-10-23T07:32:47;4.20;;;1.95;;
40731;SDS011;26420;52.256;9.096;2022-10-23T07:38:08;5.05;;;1.88;;
40731;SDS011;26420;52.256;9.096;2022-10-23T07:43:15;4.70;;;1.95;;
40731;SDS011;26420;52.256;9.096;2022-10-23T07:48:19;6.25;;;2.10;;
40731;SDS011;26420;52.256;9.096;2022-10-23T07:53:32;4.60;;;2.17;;
40731;SDS011;26420;52.256;9.096;2022-10-23T07:58:42;3.95;;;1.90;;
40731;SDS011;26420;52.256;9.096;2022-10-23T08:03:49;5.20;;;1.73;;
40731;SDS011;26420;52.256;9.096;2022-10-23T08:08:51;3.28;;;1.83;;
40731;SDS011;26420;52.256;9.096;2022-10-23T08:13:54;3.95;;;1.65;;
40731;SDS011;26420;52.256;9.096;2022-10-23T08:18:59;2.88;;;1.55;;
40731;SDS011;26420;52.256;9.096;2022-10-23T08:24:02;6.32;;;1.77;;
40731;SDS011;26420;52.256;9.096;2022-10-23T08:29:05;7.03;;;1.58;;
40731;SDS011;26420;52.256;9.096;2022-10-23T08:34:08;3.53;;;1.52;;
40731;SDS011;26420;52.256;9.096;2022-10-23T08:39:10;3.35;;;1.40;;
40731;SDS011;26420;52.256;9.096;2022-10-23T08:44:23;3.67;;;1.48;;
40731;SDS011;26420;52.256;9.096;2022-10-23T08:49:35;4.93;;;1.23;;
40731;SDS011;26420;52.256;9.096;2022-10-23T08:54:45;4.63;;;1.60;;
40731;SDS011;26420;52.256;9.096;2022-10-23T09:00:10;4.00;;;1.50;;
40731;SDS011;26420;52.256;9.096;2022-10-23T09:05:14;3.08;;;1.33;;
40731;SDS011;26420;52.256;9.096;2022-10-23T09:10:24;6.00;;;1.42;;
40731;SDS011;26420;52.256;9.096;2022-10-23T09:15:41;3.88;;;1.20;;
40731;SDS011;26420;52.256;9.096;2022-10-23T09:20:44;3.65;;;1.70;;
40731;SDS011;26420;52.256;9.096;2022-10-23T09:25:47;2.40;;;1.30;;
40731;SDS011;26420;52.256;9.096;2022-10-23T09:30:50;3.88;;;1.30;;
40731;SDS011;26420;52.256;9.096;2022-10-23T09:35:57;2.75;;;1.25;;
40731;SDS011;26420;52.256;9.096;2022-10-23T09:41:09;2.38;;;1.20;;
40731;SDS011;26420;52.256;9.096;2022-10-23T09:46:11;2.78;;;1.25;;
40731;SDS011;26420;52.256;9.096;2022-10-23T09:51:15;2.80;;;1.20;;
40731;SDS011;26420;52.256;9.096;2022-10-23T10:01:56;2.30;;;1.23;;
40731;SDS011;26420;52.256;9.096;2022-10-23T10:07:24;5.38;;;1.42;;
40731;SDS011;26420;52.256;9.096;2022-10-23T10:12:46;2.50;;;1.20;;
40731;SDS011;26420;52.256;9.096;2022-10-23T10:22:58;0.93;;;0.85;;
40731;SDS011;26420;52.256;9.096;2022-10-23T10:28:12;3.17;;;1.00;;
40731;SDS011;26420;52.256;9.096;2022-10-23T10:38:51;3.67;;;1.17;;
40731;SDS011;26420;52.256;9.096;2022-10-23T10:44:08;5.57;;;1.30;;
40731;SDS011;26420;52.256;9.096;2022-10-23T10:54:47;3.90;;;1.10;;
40731;SDS011;26420;52.256;9.096;2022-10-23T10:59:52;2.83;;;0.75;;
40731;SDS011;26420;52.256;9.096;2022-10-23T11:10:16;4.13;;;1.00;;
40731;SDS011;26420;52.256;9.096;2022-10-23T11:15:20;3.42;;;1.10;;
40731;SDS011;26420;52.256;9.096;2022-10-23T11:20:29;2.08;;;1.23;;
40731;SDS011;26420;52.256;9.096;2022-10-23T11:25:51;1.58;;;0.90;;
40731;SDS011;26420;52.256;9.096;2022-10-23T11:36:15;3.55;;;1.10;;
40731;SDS011;26420;52.256;9.096;2022-10-23T11:41:20;3.72;;;1.10;;
40731;SDS011;26420;52.256;9.096;2022-10-23T11:46:32;4.63;;;1.10;;
40731;SDS011;26420;52.256;9.096;2022-10-23T11:51:36;2.63;;;0.90;;
40731;SDS011;26420;52.256;9.096;2022-10-23T12:01:55;2.67;;;1.13;;
40731;SDS011;26420;52.256;9.096;2022-10-23T12:07:00;4.30;;;1.10;;
40731;SDS011;26420;52.256;9.096;2022-10-23T12:22:26;2.17;;;0.98;;
40731;SDS011;26420;52.256;9.096;2022-10-23T12:27:33;3.17;;;1.10;;
40731;SDS011;26420;52.256;9.096;2022-10-23T12:32:48;7.82;;;0.90;;
40731;SDS011;26420;52.256;9.096;2022-10-23T12:38:07;1.90;;;0.73;;
40731;SDS011;26420;52.256;9.096;2022-10-23T12:43:25;3.55;;;0.80;;
40731;SDS011;26420;52.256;9.096;2022-10-23T12:48:28;1.38;;;1.00;;
40731;SDS011;26420;52.256;9.096;2022-10-23T12:53:30;3.22;;;0.82;;
40731;SDS011;26420;52.256;9.096;2022-10-23T12:58:33;1.80;;;1.00;;
40731;SDS011;26420;52.256;9.096;2022-10-23T13:03:38;3.20;;;1.05;;
40731;SDS011;26420;52.256;9.096;2022-10-23T13:08:42;3.75;;;1.02;;
40731;SDS011;26420;52.256;9.096;2022-10-23T13:14:09;3.42;;;1.00;;
40731;SDS011;26420;52.256;9.096;2022-10-23T13:19:21;2.25;;;0.80;;
40731;SDS011;26420;52.256;9.096;2022-10-23T13:24:24;2.42;;;0.80;;
40731;SDS011;26420;52.256;9.096;2022-10-23T13:29:28;3.53;;;0.90;;
40731;SDS011;26420;52.256;9.096;2022-10-23T13:34:31;2.25;;;0.75;;
40731;SDS011;26420;52.256;9.096;2022-10-23T13:39:34;1.50;;;0.80;;
40731;SDS011;26420;52.256;9.096;2022-10-23T13:44:36;1.75;;;0.82;;
40731;SDS011;26420;52.256;9.096;2022-10-23T13:49:38;5.05;;;1.08;;
40731;SDS011;26420;52.256;9.096;2022-10-23T13:54:40;2.95;;;1.20;;
40731;SDS011;26420;52.256;9.096;2022-10-23T13:59:43;2.92;;;1.15;;
40731;SDS011;26420;52.256;9.096;2022-10-23T14:04:46;1.02;;;0.85;;
40731;SDS011;26420;52.256;9.096;2022-10-23T14:09:48;5.25;;;1.25;;
40731;SDS011;26420;52.256;9.096;2022-10-23T14:14:51;2.45;;;0.93;;
40731;SDS011;26420;52.256;9.096;2022-10-23T14:19:53;2.85;;;1.20;;
40731;SDS011;26420;52.256;9.096;2022-10-23T14:24:55;2.13;;;1.00;;
40731;SDS011;26420;52.256;9.096;2022-10-23T14:29:57;2.97;;;0.93;;
40731;SDS011;26420;52.256;9.096;2022-10-23T14:34:59;2.45;;;1.25;;
40731;SDS011;26420;52.256;9.096;2022-10-23T14:40:04;5.43;;;1.08;;
40731;SDS011;26420;52.256;9.096;2022-10-23T14:45:06;1.95;;;0.90;;
40731;SDS011;26420;52.256;9.096;2022-10-23T14:50:08;1.50;;;1.10;;
40731;SDS011;26420;52.256;9.096;2022-10-23T14:55:11;3.40;;;1.30;;
40731;SDS011;26420;52.256;9.096;2022-10-23T15:00:13;2.53;;;1.17;;
40731;SDS011;26420;52.256;9.096;2022-10-23T15:05:15;0.90;;;0.90;;
40731;SDS011;26420;52.256;9.096;2022-10-23T15:10:17;0.73;;;0.65;;
40731;SDS011;26420;52.256;9.096;2022-10-23T15:15:20;2.15;;;1.25;;
40731;SDS011;26420;52.256;9.096;2022-10-23T15:20:22;1.17;;;1.00;;
40731;SDS011;26420;52.256;9.096;2022-10-23T15:25:24;1.80;;;1.30;;
40731;SDS011;26420;52.256;9.096;2022-10-23T15:30:26;2.63;;;0.98;;
40731;SDS011;26420;52.256;9.096;2022-10-23T15:35:29;6.13;;;1.02;;
40731;SDS011;26420;52.256;9.096;2022-10-23T15:40:32;2.22;;;0.90;;
40731;SDS011;26420;52.256;9.096;2022-10-23T15:45:34;1.48;;;1.02;;
40731;SDS011;26420;52.256;9.096;2022-10-23T15:50:36;3.90;;;1.05;;
40731;SDS011;26420;52.256;9.096;2022-10-23T15:55:38;1.13;;;0.90;;
40731;SDS011;26420;52.256;9.096;2022-10-23T16:00:40;2.88;;;0.93;;
40731;SDS011;26420;52.256;9.096;2022-10-23T16:05:42;4.35;;;1.30;;
40731;SDS011;26420;52.256;9.096;2022-10-23T16:10:44;1.90;;;1.70;;
40731;SDS011;26420;52.256;9.096;2022-10-23T16:15:46;3.33;;;0.90;;
40731;SDS011;26420;52.256;9.096;2022-10-23T16:20:48;1.38;;;0.77;;
40731;SDS011;26420;52.256;9.096;2022-10-23T16:25:51;3.28;;;1.17;;
40731;SDS011;26420;52.256;9.096;2022-10-23T16:30:53;1.02;;;0.93;;
40731;SDS011;26420;52.256;9.096;2022-10-23T16:35:55;2.22;;;1.30;;
40731;SDS011;26420;52.256;9.096;2022-10-23T16:41:02;2.83;;;1.80;;
40731;SDS011;26420;52.256;9.096;2022-10-23T16:46:14;5.00;;;2.47;;
40731;SDS011;26420;52.256;9.096;2022-10-23T16:51:17;1.23;;;1.13;;
40731;SDS011;26420;52.256;9.096;2022-10-23T16:56:21;1.33;;;1.00;;
40731;SDS011;26420;52.256;9.096;2022-10-23T17:01:24;1.50;;;1.20;;
40731;SDS011;26420;52.256;9.096;2022-10-23T17:06:28;1.58;;;1.08;;
40731;SDS011;26420;52.256;9.096;2022-10-23T17:11:31;3.65;;;1.20;;
40731;SDS011;26420;52.256;9.096;2022-10-23T17:16:35;4.55;;;1.80;;
40731;SDS011;26420;52.256;9.096;2022-10-23T17:21:38;4.22;;;1.65;;
40731;SDS011;26420;52.256;9.096;2022-10-23T17:26:41;2.85;;;1.52;;
40731;SDS011;26420;52.256;9.096;2022-10-23T17:31:44;6.30;;;1.52;;
40731;SDS011;26420;52.256;9.096;2022-10-23T17:36:48;5.18;;;1.50;;
40731;SDS011;26420;52.256;9.096;2022-10-23T17:41:50;2.47;;;1.67;;
40731;SDS011;26420;52.256;9.096;2022-10-23T17:46:53;2.38;;;1.80;;
40731;SDS011;26420;52.256;9.096;2022-10-23T17:51:56;2.97;;;1.30;;
40731;SDS011;26420;52.256;9.096;2022-10-23T17:56:58;6.43;;;2.05;;
40731;SDS011;26420;52.256;9.096;2022-10-23T18:02:00;2.58;;;1.95;;
40731;SDS011;26420;52.256;9.096;2022-10-23T18:07:03;7.13;;;2.50;;
40731;SDS011;26420;52.256;9.096;2022-10-23T18:12:05;2.97;;;1.98;;
40731;SDS011;26420;52.256;9.096;2022-10-23T18:17:07;2.40;;;1.48;;
40731;SDS011;26420;52.256;9.096;2022-10-23T18:22:09;5.50;;;2.17;;
40731;SDS011;26420;52.256;9.096;2022-10-23T18:27:11;2.63;;;2.08;;
40731;SDS011;26420;52.256;9.096;2022-10-23T18:32:14;5.32;;;1.85;;
40731;SDS011;26420;52.256;9.096;2022-10-23T18:37:16;3.28;;;1.90;;
40731;SDS011;26420;52.256;9.096;2022-10-23T18:42:18;2.45;;;1.63;;
40731;SDS011;26420;52.256;9.096;2022-10-23T18:47:20;2.63;;;1.60;;
40731;SDS011;26420;52.256;9.096;2022-10-23T18:52:22;1.67;;;1.30;;
40731;SDS011;26420;52.256;9.096;2022-10-23T18:57:24;1.50;;;1.27;;
40731;SDS011;26420;52.256;9.096;2022-10-23T19:02:26;3.33;;;1.40;;
40731;SDS011;26420;52.256;9.096;2022-10-23T19:07:29;2.33;;;1.25;;
40731;SDS011;26420;52.256;9.096;2022-10-23T19:12:31;5.40;;;1.52;;
40731;SDS011;26420;52.256;9.096;2022-10-23T19:17:33;3.55;;;1.67;;
40731;SDS011;26420;52.256;9.096;2022-10-23T19:22:35;17.98;;;5.90;;
40731;SDS011;26420;52.256;9.096;2022-10-23T19:27:40;16.23;;;6.93;;
40731;SDS011;26420;52.256;9.096;2022-10-23T19:32:44;12.43;;;4.70;;
40731;SDS011;26420;52.256;9.096;2022-10-23T19:37:46;8.68;;;4.43;;
40731;SDS011;26420;52.256;9.096;2022-10-23T19:42:49;6.35;;;3.13;;
40731;SDS011;26420;52.256;9.096;2022-10-23T19:47:51;6.60;;;2.78;;
40731;SDS011;26420;52.256;9.096;2022-10-23T19:52:53;5.43;;;2.38;;
40731;SDS011;26420;52.256;9.096;2022-10-23T19:57:55;6.80;;;3.25;;
40731;SDS011;26420;52.256;9.096;2022-10-23T20:02:57;4.88;;;1.95;;
40731;SDS011;26420;52.256;9.096;2022-10-23T20:07:59;4.50;;;1.98;;
40731;SDS011;26420;52.256;9.096;2022-10-23T20:13:02;6.97;;;2.60;;
40731;SDS011;26420;52.256;9.096;2022-10-23T20:18:19;5.60;;;2.75;;
40731;SDS011;26420;52.256;9.096;2022-10-23T20:23:22;3.97;;;2.30;;
40731;SDS011;26420;52.256;9.096;2022-10-23T20:28:24;2.70;;;2.05;;
40731;SDS011;26420;52.256;9.096;2022-10-23T20:33:26;2.55;;;1.70;;
40731;SDS011;26420;52.256;9.096;2022-10-23T20:38:28;4.18;;;1.75;;
40731;SDS011;26420;52.256;9.096;2022-10-23T20:43:31;4.32;;;1.80;;
40731;SDS011;26420;52.256;9.096;2022-10-23T20:48:37;6.20;;;2.17;;
40731;SDS011;26420;52.256;9.096;2022-10-23T20:53:39;3.08;;;1.83;;
40731;SDS011;26420;52.256;9.096;2022-10-23T20:58:42;2.22;;;1.70;;
40731;SDS011;26420;52.256;9.096;2022-10-23T21:03:48;4.10;;;1.90;;
40731;SDS011;26420;52.256;9.096;2022-10-23T21:08:54;6.07;;;1.73;;
40731;SDS011;26420;52.256;9.096;2022-10-23T21:13:56;2.70;;;1.80;;
40731;SDS011;26420;52.256;9.096;2022-10-23T21:19:01;4.07;;;1.73;;
40731;SDS011;26420;52.256;9.096;2022-10-23T21:24:05;2.67;;;1.55;;
40731;SDS011;26420;52.256;9.096;2022-10-23T21:29:07;4.22;;;1.70;;
40731;SDS011;26420;52.256;9.096;2022-10-23T21:34:20;2.78;;;1.50;;
40731;SDS011;26420;52.256;9.096;2022-10-23T21:39:22;1.60;;;1.45;;
40731;SDS011;26420;52.256;9.096;2022-10-23T21:44:24;2.70;;;1.70;;
40731;SDS011;26420;52.256;9.096;2022-10-23T21:49:26;1.55;;;1.30;;
40731;SDS011;26420;52.256;9.096;2022-10-23T21:54:28;2.88;;;1.55;;
40731;SDS011;26420;52.256;9.096;2022-10-23T21:59:30;3.50;;;1.55;;
40731;SDS011;26420;52.256;9.096;2022-10-23T22:04:36;1.75;;;1.35;;
40731;SDS011;26420;52.256;9.096;2022-10-23T22:09:39;2.67;;;1.42;;
40731;SDS011;26420;52.256;9.096;2022-10-23T22:14:41;3.42;;;1.30;;
40731;SDS011;26420;52.256;9.096;2022-10-23T22:19:44;1.83;;;1.27;;
40731;SDS011;26420;52.256;9.096;2022-10-23T22:24:46;3.70;;;1.10;;
40731;SDS011;26420;52.256;9.096;2022-10-23T22:29:48;2.97;;;1.33;;
40731;SDS011;26420;52.256;9.096;2022-10-23T22:34:50;1.65;;;1.27;;
40731;SDS011;26420;52.256;9.096;2022-10-23T22:39:53;3.00;;;1.23;;
40731;SDS011;26420;52.256;9.096;2022-10-23T22:44:56;2.22;;;1.35;;
40731;SDS011;26420;52.256;9.096;2022-10-23T22:49:58;4.18;;;1.40;;
40731;SDS011;26420;52.256;9.096;2022-10-23T22:55:00;2.78;;;1.00;;
40731;SDS011;26420;52.256;9.096;2022-10-23T23:00:03;4.60;;;1.33;;
40731;SDS011;26420;52.256;9.096;2022-10-23T23:05:08;1.50;;;1.30;;
40731;SDS011;26420;52.256;9.096;2022-10-23T23:10:10;2.53;;;1.50;;
40731;SDS011;26420;52.256;9.096;2022-10-23T23:15:13;2.95;;;1.20;;
40731;SDS011;26420;52.256;9.096;2022-10-23T23:20:15;2.42;;;1.20;;
40731;SDS011;26420;52.256;9.096;2022-10-23T23:25:17;4.43;;;1.33;;
40731;SDS011;26420;52.256;9.096;2022-10-23T23:30:19;3.13;;;1.42;;
40731;SDS011;26420;52.256;9.096;2022-10-23T23:35:21;5.90;;;1.40;;
40731;SDS011;26420;52.256;9.096;2022-10-23T23:40:23;5.35;;;1.83;;
40731;SDS011;26420;52.256;9.096;2022-10-23T23:45:25;5.07;;;1.40;;
40731;SDS011;26420;52.256;9.096;2022-10-23T23:50:28;5.70;;;1.42;;
40731;SDS011;26420;52.256;9.096;2022-10-23T23:55:30;4.22;;;1.40;;
